Time;durP1;ratioP1;P1;durP2;ratioP2;P2;SDS_P1;SDS_P2;PMS_P1;PMS_P2;Temp;Humidity;BMP_temperature;BMP_pressure;BME280_temperature;BME280_humidity;BME280_pressure;Samples;Min_cycle;Max_cycle;Signal;HPM_P1;HPM_P2
2021/04/23 00:00:59;;;;;;;3.77;1.60;;;;;;;7.78;62.03;98844.50;5033759;28;20225;-70
2021/04/23 00:03:31;;;;;;;5.60;1.70;;;;;;;7.61;60.73;98841.97;5033347;28;20673;-70
2021/04/23 00:06:04;;;;;;;4.80;1.63;;;;;;;7.62;64.63;98833.81;5032747;28;20203;-70
2021/04/23 00:08:31;;;;;;;4.73;1.50;;;;;;;7.60;64.19;98833.16;5031169;28;20226;-70
2021/04/23 00:10:58;;;;;;;5.63;2.20;;;;;;;7.56;64.04;98847.75;5029967;28;20837;-70
2021/04/23 00:13:25;;;;;;;3.17;1.20;;;;;;;7.47;65.05;98848.72;5031779;28;20275;-70
2021/04/23 00:15:53;;;;;;;2.90;1.30;;;;;;;7.35;64.97;98844.69;5032136;28;20304;-70
2021/04/23 00:18:21;;;;;;;6.13;2.13;;;;;;;7.33;65.34;98854.66;5025822;28;20214;-70
2021/04/23 00:20:49;;;;;;;2.07;1.30;;;;;;;7.41;64.42;98846.72;5032874;28;20228;-70
2021/04/23 00:23:16;;;;;;;4.83;1.60;;;;;;;7.47;64.22;98853.22;5032659;28;20296;-71
2021/04/23 00:25:43;;;;;;;4.30;1.20;;;;;;;7.36;66.74;98851.66;5032784;28;20215;-71
2021/04/23 00:28:13;;;;;;;2.70;1.40;;;;;;;7.35;66.31;98850.00;5024568;28;20203;-70
2021/04/23 00:30:43;;;;;;;5.80;1.30;;;;;;;7.25;66.93;98851.16;5031870;28;20323;-70
2021/04/23 00:33:10;;;;;;;4.97;1.63;;;;;;;7.22;66.20;98852.31;5033299;28;20228;-70
2021/04/23 00:35:40;;;;;;;4.20;1.57;;;;;;;7.29;65.80;98858.63;5023158;28;20218;-70
2021/04/23 00:38:11;;;;;;;4.37;1.73;;;;;;;7.37;65.83;98855.97;5032396;28;20216;-70
2021/04/23 00:40:42;;;;;;;5.37;1.70;;;;;;;7.40;66.52;98853.03;5027410;28;20234;-71
2021/04/23 00:43:09;;;;;;;6.13;1.77;;;;;;;7.27;67.61;98852.66;5029126;28;20218;-70
2021/04/23 00:45:36;;;;;;;4.73;1.87;;;;;;;7.30;67.43;98854.16;5032014;28;20218;-70
2021/04/23 00:48:06;;;;;;;7.40;1.90;;;;;;;7.24;68.38;98857.44;5032971;28;20207;-70
2021/04/23 00:50:37;;;;;;;3.23;1.53;;;;;;;7.22;69.57;98849.66;5033244;28;20226;-70
2021/04/23 00:53:05;;;;;;;6.23;1.93;;;;;;;7.26;70.41;98845.66;5031704;28;20703;-70
2021/04/23 00:55:33;;;;;;;5.10;1.77;;;;;;;7.18;70.64;98850.94;5031142;28;20655;-70
2021/04/23 00:58:01;;;;;;;6.07;1.60;;;;;;;7.13;70.88;98852.41;5029654;28;20635;-70
2021/04/23 01:00:28;;;;;;;7.67;1.50;;;;;;;7.12;71.61;98845.44;5025986;28;20235;-70
2021/04/23 01:02:55;;;;;;;5.77;1.93;;;;;;;7.05;71.10;98847.88;5024708;28;20210;-70
2021/04/23 01:05:28;;;;;;;6.57;1.80;;;;;;;7.07;70.61;98845.94;5025852;28;20572;-70
2021/04/23 01:07:55;;;;;;;5.60;2.03;;;;;;;7.04;70.87;98851.53;5029231;28;20215;-70
2021/04/23 01:10:22;;;;;;;4.63;1.87;;;;;;;6.99;71.25;98851.19;5030554;28;20219;-71
2021/04/23 01:12:50;;;;;;;5.10;1.80;;;;;;;6.93;72.80;98848.31;5027817;28;20231;-71
2021/04/23 01:15:17;;;;;;;5.90;1.80;;;;;;;6.80;73.45;98848.75;5029908;28;20202;-71
2021/04/23 01:17:44;;;;;;;8.00;1.67;;;;;;;6.96;72.79;98851.47;5032170;28;20214;-71
2021/04/23 01:20:12;;;;;;;7.37;1.90;;;;;;;6.91;73.26;98852.97;5027870;28;20231;-70
2021/04/23 01:22:41;;;;;;;7.60;2.00;;;;;;;6.83;73.76;98845.78;5028942;28;20223;-70
2021/04/23 01:25:09;;;;;;;4.63;1.80;;;;;;;6.79;73.05;98843.59;5027072;28;20214;-70
2021/04/23 01:27:36;;;;;;;3.67;1.40;;;;;;;6.90;72.24;98844.16;5031803;28;20203;-70
2021/04/23 01:30:08;;;;;;;5.37;1.60;;;;;;;6.84;72.67;98838.66;5023751;28;20674;-71
2021/04/23 01:32:35;;;;;;;4.27;1.47;;;;;;;6.84;72.78;98846.59;5031929;28;20607;-71
2021/04/23 01:35:03;;;;;;;3.53;1.80;;;;;;;6.81;72.68;98844.28;5030350;28;20206;-70
2021/04/23 01:37:30;;;;;;;4.23;1.93;;;;;;;6.89;72.64;98839.84;5028094;28;20206;-70
2021/04/23 01:39:58;;;;;;;5.83;1.70;;;;;;;6.70;75.41;98844.56;5031226;28;20321;-70
2021/04/23 01:42:25;;;;;;;4.70;2.20;;;;;;;6.70;75.41;98840.06;5030775;28;20213;-70
2021/04/23 01:44:57;;;;;;;5.17;1.83;;;;;;;6.79;74.49;98844.44;5031104;28;20215;-70
2021/04/23 01:47:24;;;;;;;6.60;2.20;;;;;;;6.65;77.54;98847.66;5029368;28;20199;-70
2021/04/23 01:49:51;;;;;;;4.57;2.13;;;;;;;6.56;77.85;98845.97;5028758;28;20657;-70
2021/04/23 01:52:19;;;;;;;5.40;1.70;;;;;;;6.42;77.61;98858.91;5025766;28;20199;-70
2021/04/23 01:54:46;;;;;;;4.97;2.10;;;;;;;6.45;77.16;98864.75;5025022;28;20232;-70
2021/04/23 01:57:14;;;;;;;2.83;1.53;;;;;;;6.53;75.73;98859.50;5023516;28;20210;-70
2021/04/23 01:59:42;;;;;;;4.50;1.60;;;;;;;6.62;75.07;98865.69;5029674;28;20338;-70
2021/04/23 02:02:10;;;;;;;6.67;1.90;;;;;;;6.61;73.64;98869.34;5025558;28;20211;-70
2021/04/23 02:04:37;;;;;;;3.67;1.37;;;;;;;6.67;71.71;98872.22;5029215;28;20242;-70
2021/04/23 02:07:05;;;;;;;5.37;2.00;;;;;;;6.69;71.41;98872.03;5022527;28;20303;-70
2021/04/23 02:09:33;;;;;;;8.03;2.23;;;;;;;6.47;73.38;98870.75;5024714;28;20303;-70
2021/04/23 02:11:59;;;;;;;5.97;1.93;;;;;;;6.41;74.19;98879.31;5027568;28;20375;-70
2021/04/23 02:14:27;;;;;;;5.07;2.10;;;;;;;6.23;77.05;98872.34;5031028;28;20223;-70
2021/04/23 02:16:55;;;;;;;4.47;1.73;;;;;;;6.28;76.76;98875.38;5031538;28;20203;-70
2021/04/23 02:19:22;;;;;;;7.03;2.17;;;;;;;6.26;76.83;98875.53;5026828;28;20234;-70
2021/04/23 02:21:50;;;;;;;5.30;1.70;;;;;;;6.24;76.36;98874.03;5031621;28;20216;-71
2021/04/23 02:24:18;;;;;;;7.13;1.60;;;;;;;6.19;77.22;98878.97;5027326;28;20565;-70
2021/04/23 02:26:45;;;;;;;9.50;2.10;;;;;;;6.20;78.40;98873.47;5029004;28;20206;-70
2021/04/23 02:29:14;;;;;;;8.13;2.30;;;;;;;6.11;78.62;98890.31;5030756;28;20309;-70
2021/04/23 02:31:44;;;;;;;6.70;1.70;;;;;;;6.06;80.27;98878.50;5026090;28;20233;-70
2021/04/23 02:34:13;;;;;;;6.60;2.13;;;;;;;5.98;80.76;98881.06;5023177;28;20234;-70
2021/04/23 02:36:40;;;;;;;6.27;2.10;;;;;;;6.03;79.71;98887.56;5027800;28;20251;-70
2021/04/23 02:39:09;;;;;;;7.90;2.27;;;;;;;6.10;80.05;98885.97;5030758;28;20209;-70
2021/04/23 02:41:37;;;;;;;5.73;1.90;;;;;;;6.07;79.88;98886.31;5030735;28;20202;-70
2021/04/23 02:44:04;;;;;;;8.37;2.03;;;;;;;6.10;78.88;98887.81;5022960;28;20566;-70
2021/04/23 02:46:32;;;;;;;6.87;2.00;;;;;;;6.01;81.97;98883.41;5030762;28;20670;-71
2021/04/23 02:49:00;;;;;;;12.97;2.57;;;;;;;5.98;80.94;98887.19;5030319;28;20206;-70
2021/04/23 02:51:30;;;;;;;7.40;2.20;;;;;;;5.82;81.21;98891.50;5030316;28;20227;-70
2021/04/23 02:53:58;;;;;;;6.83;1.80;;;;;;;5.84;82.58;98886.91;5027966;28;20233;-70
2021/04/23 02:56:26;;;;;;;7.17;2.17;;;;;;;5.89;82.40;98901.34;5030441;28;20215;-70
2021/04/23 02:58:53;;;;;;;5.57;2.73;;;;;;;5.82;83.34;98894.13;5023536;28;20218;-70
2021/04/23 03:01:21;;;;;;;4.23;1.80;;;;;;;5.86;84.11;98901.66;5026570;28;20234;-70
2021/04/23 03:03:48;;;;;;;7.47;2.33;;;;;;;5.74;84.89;98900.16;5029032;28;20198;-70
2021/04/23 03:06:16;;;;;;;12.47;2.60;;;;;;;5.87;83.69;98892.72;5025554;28;20210;-70
2021/04/23 03:08:43;;;;;;;13.03;2.30;;;;;;;5.84;84.02;98900.13;5029066;28;20836;-70
2021/04/23 03:11:12;;;;;;;6.47;2.30;;;;;;;5.75;84.86;98887.75;5029541;28;20222;-68
2021/04/23 03:13:40;;;;;;;6.53;2.17;;;;;;;5.84;84.52;98897.50;5030427;28;20303;-70
2021/04/23 03:16:08;;;;;;;4.70;2.23;;;;;;;5.78;84.19;98890.94;5030335;28;20717;-70
2021/04/23 03:18:37;;;;;;;8.93;2.07;;;;;;;5.74;86.30;98892.19;5030012;28;20206;-70
2021/04/23 03:21:05;;;;;;;7.27;2.53;;;;;;;5.65;86.07;98893.13;5029910;28;20225;-70
2021/04/23 03:23:33;;;;;;;5.70;2.23;;;;;;;5.74;85.80;98894.84;5028752;28;20209;-70
2021/04/23 03:26:01;;;;;;;8.07;2.30;;;;;;;5.78;85.38;98893.56;5027566;28;20206;-70
2021/04/23 03:28:28;;;;;;;11.00;2.80;;;;;;;5.66;85.46;98901.88;5028411;28;20210;-70
2021/04/23 03:30:55;;;;;;;5.83;2.50;;;;;;;5.81;85.15;98905.72;5026879;28;20284;-70
2021/04/23 03:33:22;;;;;;;10.07;2.70;;;;;;;5.78;85.28;98903.34;5027434;28;20226;-70
2021/04/23 03:35:52;;;;;;;10.03;3.43;;;;;;;5.73;85.79;98897.66;5029247;28;20202;-70
2021/04/23 03:38:19;;;;;;;5.47;2.30;;;;;;;5.77;86.43;98907.81;5026545;28;20213;-71
2021/04/23 03:40:49;;;;;;;7.50;2.47;;;;;;;5.62;87.21;98914.59;5030401;28;20260;-71
2021/04/23 03:43:16;;;;;;;6.47;2.17;;;;;;;5.62;87.46;98908.44;5027266;28;20225;-71
2021/04/23 03:45:44;;;;;;;5.67;2.17;;;;;;;5.62;87.08;98908.44;5029031;28;20209;-71
2021/04/23 03:48:11;;;;;;;6.27;2.07;;;;;;;5.72;86.83;98911.88;5025404;28;20264;-70
2021/04/23 03:50:39;;;;;;;8.60;2.77;;;;;;;5.46;88.85;98910.91;5024125;28;20272;-70
2021/04/23 03:53:08;;;;;;;7.00;2.40;;;;;;;5.45;88.52;98906.59;5023642;28;20233;-70
2021/04/23 03:55:43;;;;;;;8.17;2.27;;;;;;;5.49;88.07;98914.09;5029679;28;20210;-70
2021/04/23 03:58:11;;;;;;;7.67;2.63;;;;;;;5.54;87.39;98919.78;5027865;28;20205;-69
2021/04/23 04:00:40;;;;;;;6.97;2.33;;;;;;;5.46;88.01;98917.03;5029050;28;20226;-70
2021/04/23 04:03:07;;;;;;;13.47;2.33;;;;;;;5.39;89.90;98918.59;5029611;28;20201;-69
2021/04/23 04:05:35;;;;;;;9.57;2.53;;;;;;;5.32;90.33;98914.03;5029565;28;20265;-69
2021/04/23 04:08:03;;;;;;;7.53;2.33;;;;;;;5.39;89.99;98921.25;5028926;28;20202;-70
2021/04/23 04:10:29;;;;;;;8.00;1.90;;;;;;;5.40;89.60;98919.44;5020339;28;20231;-69
2021/04/23 04:12:56;;;;;;;8.17;3.00;;;;;;;5.16;90.91;98922.59;5026539;28;20207;-70
2021/04/23 04:15:24;;;;;;;6.17;2.30;;;;;;;5.37;89.80;98931.16;5028112;28;20202;-70
2021/04/23 04:17:51;;;;;;;7.63;2.10;;;;;;;5.42;88.89;98931.53;5025104;28;20706;-70
2021/04/23 04:20:19;;;;;;;7.90;2.83;;;;;;;5.45;89.50;98936.56;5024161;28;20272;-70
2021/04/23 04:22:46;;;;;;;11.10;2.83;;;;;;;5.46;90.91;98937.38;5027140;28;20202;-70
2021/04/23 04:25:15;;;;;;;10.97;2.87;;;;;;;5.54;90.00;98935.66;5023193;28;20224;-70
2021/04/23 04:27:42;;;;;;;6.47;2.30;;;;;;;5.42;90.92;98934.19;5023662;28;20217;-70
2021/04/23 04:30:10;;;;;;;11.73;2.63;;;;;;;5.42;90.95;98936.00;5031186;28;20236;-69
2021/04/23 04:32:39;;;;;;;5.93;2.63;;;;;;;5.36;90.90;98939.22;5033465;28;20232;-70
2021/04/23 04:35:07;;;;;;;7.47;2.40;;;;;;;5.36;90.70;98939.22;5024428;28;20231;-70
2021/04/23 04:37:34;;;;;;;6.83;2.27;;;;;;;5.51;90.06;98943.91;5027117;28;20268;-70
2021/04/23 04:40:00;;;;;;;9.40;2.47;;;;;;;5.64;89.82;98947.03;5033627;28;20605;-70
2021/04/23 04:42:27;;;;;;;7.63;2.37;;;;;;;5.70;89.38;98949.13;5028689;28;20204;-70
2021/04/23 04:45:00;;;;;;;11.53;2.77;;;;;;;5.70;91.42;98945.63;5032416;28;20572;-70
2021/04/23 04:47:27;;;;;;;9.17;3.63;;;;;;;5.58;90.91;98950.28;5031253;28;20293;-70
2021/04/23 04:49:55;;;;;;;6.50;2.27;;;;;;;5.74;91.26;98955.75;5032491;28;20229;-70
2021/04/23 04:52:22;;;;;;;7.60;2.90;;;;;;;5.90;90.30;98942.72;5030475;28;20624;-70
2021/04/23 04:54:49;;;;;;;13.97;2.60;;;;;;;6.05;89.52;98957.13;5023621;28;20669;-70
2021/04/23 04:57:16;;;;;;;11.67;3.53;;;;;;;6.06;89.76;98957.97;5032356;28;20213;-70
2021/04/23 04:59:45;;;;;;;8.60;3.27;;;;;;;6.19;88.80;98955.81;5029996;28;20666;-71
2021/04/23 05:02:12;;;;;;;6.77;2.80;;;;;;;6.32;86.85;98956.25;5026296;28;20753;-70
2021/04/23 05:04:38;;;;;;;6.30;2.40;;;;;;;6.62;84.79;98959.38;5028702;28;20203;-71
2021/04/23 05:07:07;;;;;;;7.67;2.57;;;;;;;6.85;83.21;98962.38;5021058;28;20202;-70
2021/04/23 05:09:34;;;;;;;11.03;2.73;;;;;;;7.11;80.49;98965.88;5028510;28;20254;-70
2021/04/23 05:12:01;;;;;;;6.97;2.63;;;;;;;7.34;78.98;98964.34;5026091;28;20212;-70
2021/04/23 05:14:27;;;;;;;14.07;3.20;;;;;;;7.53;77.31;98972.94;5025672;28;20222;-71
2021/04/23 05:16:54;;;;;;;7.93;2.57;;;;;;;7.71;75.66;98967.53;5027114;28;20210;-71
2021/04/23 05:19:21;;;;;;;5.53;2.57;;;;;;;7.83;74.78;98976.88;5024796;28;20207;-72
2021/04/23 05:21:48;;;;;;;9.37;2.90;;;;;;;7.91;73.97;98979.56;5033286;28;20257;-72
2021/04/23 05:24:16;;;;;;;10.67;2.87;;;;;;;8.07;72.91;98979.63;5030400;28;20196;-71
2021/04/23 05:26:42;;;;;;;5.63;2.67;;;;;;;8.14;71.80;98985.94;5028782;28;20570;-71
2021/04/23 05:29:09;;;;;;;6.50;2.80;;;;;;;8.21;71.72;98989.66;5019453;28;20255;-71
2021/04/23 05:31:36;;;;;;;7.37;2.80;;;;;;;8.45;70.17;98990.56;5030400;28;20663;-80
2021/04/23 05:34:04;;;;;;;9.97;2.97;;;;;;;8.16;70.23;98998.09;5028315;28;20610;-71
2021/04/23 05:36:30;;;;;;;7.40;3.00;;;;;;;8.20;69.48;98999.47;5030850;28;20219;-72
2021/04/23 05:38:57;;;;;;;12.90;3.20;;;;;;;8.60;68.05;99002.22;5027990;28;20212;-73
2021/04/23 05:41:25;;;;;;;11.97;2.77;;;;;;;8.74;67.67;99008.72;5030649;28;20229;-77
2021/04/23 05:43:52;;;;;;;15.20;3.27;;;;;;;8.65;66.25;99017.69;5032506;28;20263;-71
2021/04/23 05:46:19;;;;;;;7.03;3.27;;;;;;;8.98;64.08;99014.88;5028524;28;20209;-71
2021/04/23 05:48:46;;;;;;;12.27;2.77;;;;;;;8.88;65.13;99011.53;5029957;28;20209;-72
2021/04/23 05:51:13;;;;;;;6.63;3.00;;;;;;;9.04;64.85;99022.19;5022747;28;20240;-73
2021/04/23 05:53:40;;;;;;;11.00;2.80;;;;;;;9.14;63.04;99025.53;5026538;28;20230;-73
2021/04/23 05:56:07;;;;;;;8.40;2.90;;;;;;;8.79;63.91;99036.47;5025610;28;20259;-73
2021/04/23 05:58:34;;;;;;;8.53;3.00;;;;;;;9.11;64.71;99028.53;5019975;28;20220;-71
2021/04/23 06:01:01;;;;;;;10.20;3.03;;;;;;;9.23;62.25;99024.53;5026684;28;20232;-71
2021/04/23 06:03:28;;;;;;;6.70;2.50;;;;;;;9.75;59.68;99032.94;5028232;28;20194;-72
2021/04/23 06:05:55;;;;;;;11.53;3.43;;;;;;;9.91;58.77;99031.06;5026038;28;20259;-73
2021/04/23 06:08:22;;;;;;;11.67;2.80;;;;;;;9.47;59.69;99034.31;5025933;28;20201;-73
2021/04/23 06:10:50;;;;;;;5.57;2.70;;;;;;;9.15;60.13;99037.88;5026782;28;20312;-74
2021/04/23 06:13:17;;;;;;;6.57;2.67;;;;;;;9.35;61.17;99033.84;5022448;28;20310;-77
2021/04/23 06:15:45;;;;;;;9.03;2.60;;;;;;;10.01;56.85;99044.19;5028286;28;20207;-71
2021/04/23 06:18:13;;;;;;;8.13;2.93;;;;;;;9.43;58.14;99046.34;5019262;28;20273;-72
2021/04/23 06:20:41;;;;;;;11.03;3.17;;;;;;;9.29;58.71;99041.69;5020099;28;20240;-72
2021/04/23 06:23:09;;;;;;;9.90;2.97;;;;;;;9.76;57.62;99045.25;5027330;28;20208;-72
2021/04/23 06:25:36;;;;;;;8.17;2.73;;;;;;;9.75;57.75;99055.06;5026508;28;20206;-73
2021/04/23 06:28:05;;;;;;;8.73;3.33;;;;;;;9.94;57.76;99041.38;5030971;28;20206;-72
2021/04/23 06:30:34;;;;;;;9.53;2.80;;;;;;;9.63;58.45;99045.78;5029362;28;20257;-73
2021/04/23 06:33:07;;;;;;;8.53;3.30;;;;;;;10.26;57.12;99049.25;5029435;28;20213;-72
2021/04/23 06:35:34;;;;;;;9.53;3.07;;;;;;;10.09;57.30;99047.69;5026517;28;20209;-73
2021/04/23 06:38:00;;;;;;;12.60;2.83;;;;;;;9.96;59.57;99051.88;5029340;28;20276;-76
2021/04/23 06:40:27;;;;;;;8.30;3.27;;;;;;;9.91;59.60;99052.41;5020181;28;20219;-73
2021/04/23 06:42:54;;;;;;;9.13;3.53;;;;;;;10.47;58.27;99059.34;5028891;28;20214;-74
2021/04/23 06:45:23;;;;;;;8.17;3.10;;;;;;;10.25;55.41;99060.94;5028652;28;20675;-73
2021/04/23 06:47:50;;;;;;;13.83;3.53;;;;;;;10.77;55.33;99061.19;5033071;28;20206;-73
2021/04/23 06:50:20;;;;;;;7.93;3.60;;;;;;;10.62;54.96;99065.63;5023789;28;20707;-73
2021/04/23 06:52:47;;;;;;;11.87;3.43;;;;;;;10.69;55.08;99072.75;5031695;28;20206;-73
2021/04/23 06:55:16;;;;;;;17.13;3.80;;;;;;;10.61;55.10;99064.78;5027219;28;20226;-74
2021/04/23 06:57:43;;;;;;;8.63;3.40;;;;;;;11.17;54.12;99064.38;5023616;28;20203;-72
2021/04/23 07:00:13;;;;;;;8.70;3.30;;;;;;;11.21;54.53;99057.69;5026664;28;20230;-74
2021/04/23 07:02:39;;;;;;;10.73;3.60;;;;;;;11.45;53.65;99062.84;5025614;28;20211;-74
2021/04/23 07:05:07;;;;;;;11.33;3.50;;;;;;;11.09;53.85;99060.94;5025059;28;20569;-74
2021/04/23 07:07:35;;;;;;;11.63;4.17;;;;;;;10.87;55.91;99064.47;5026282;28;20934;-73
2021/04/23 07:10:03;;;;;;;9.10;3.90;;;;;;;10.55;56.33;99060.13;5026249;28;20234;-77
2021/04/23 07:12:29;;;;;;;14.50;3.53;;;;;;;10.95;55.45;99061.75;5031879;28;20226;-72
2021/04/23 07:14:56;;;;;;;11.53;4.10;;;;;;;11.86;50.75;99078.53;5032156;28;20210;-74
2021/04/23 07:17:23;;;;;;;5.90;3.40;;;;;;;12.07;49.22;99082.13;5027556;28;20210;-81
2021/04/23 07:19:50;;;;;;;11.60;3.50;;;;;;;11.64;49.51;99084.75;5032515;28;20220;-75
2021/04/23 07:22:17;;;;;;;11.27;4.10;;;;;;;11.05;51.74;99081.00;5031815;28;20200;-79
2021/04/23 07:24:45;;;;;;;16.27;4.60;;;;;;;11.36;51.23;99082.63;5025987;28;20206;-79
2021/04/23 07:27:12;;;;;;;12.57;3.90;;;;;;;11.80;48.72;99085.41;5029399;28;20233;-75
2021/04/23 07:29:39;;;;;;;12.47;3.40;;;;;;;11.41;48.34;99090.09;5025666;28;20849;-83
2021/04/23 07:32:07;;;;;;;10.60;3.30;;;;;;;12.23;46.73;99081.09;5029503;28;20207;-78
2021/04/23 07:34:35;;;;;;;11.23;3.57;;;;;;;12.38;45.46;99088.94;5028623;28;20226;-71
2021/04/23 07:37:02;;;;;;;9.10;3.40;;;;;;;12.44;44.59;99095.41;5024467;28;20210;-73
2021/04/23 07:39:29;;;;;;;14.57;3.10;;;;;;;12.85;44.31;99088.50;5025160;28;20226;-73
2021/04/23 07:41:57;;;;;;;10.27;3.40;;;;;;;12.05;44.62;99094.03;5027474;28;20576;-72
2021/04/23 07:44:26;;;;;;;8.93;2.47;;;;;;;12.29;45.26;99083.88;5025534;28;20248;-71
2021/04/23 07:46:53;;;;;;;8.93;3.00;;;;;;;12.08;44.25;99092.63;5027914;28;20202;-73
2021/04/23 07:49:20;;;;;;;9.87;3.00;;;;;;;12.08;44.05;99097.97;5029949;28;20265;-76
2021/04/23 07:51:47;;;;;;;13.37;2.70;;;;;;;11.98;44.01;99096.63;5028094;28;20204;-78
2021/04/23 07:54:15;;;;;;;8.83;2.67;;;;;;;12.59;43.13;99098.91;5027842;28;20231;-75
2021/04/23 07:56:41;;;;;;;10.87;3.10;;;;;;;12.11;43.94;99098.66;5028122;28;20220;-75
2021/04/23 07:59:09;;;;;;;8.10;3.07;;;;;;;13.05;42.16;99097.63;5023742;28;20202;-78
2021/04/23 08:01:36;;;;;;;9.13;3.10;;;;;;;12.54;42.32;99098.63;5024958;28;20256;-76
2021/04/23 08:04:04;;;;;;;11.90;2.87;;;;;;;12.72;42.38;99100.91;5029671;28;20211;-73
2021/04/23 08:06:31;;;;;;;8.20;2.83;;;;;;;12.97;41.92;99096.91;5028231;28;20204;-71
2021/04/23 08:08:59;;;;;;;11.53;3.23;;;;;;;12.56;42.55;99095.78;5022787;28;20211;-71
2021/04/23 08:11:26;;;;;;;13.00;3.40;;;;;;;13.42;41.34;99094.69;5026882;28;20224;-74
2021/04/23 08:13:53;;;;;;;10.90;3.03;;;;;;;12.73;40.59;99096.19;5027842;28;20762;-71
2021/04/23 08:16:21;;;;;;;9.33;3.43;;;;;;;13.29;40.54;99107.13;5030239;28;20207;-71
2021/04/23 08:18:52;;;;;;;6.83;3.03;;;;;;;13.32;39.21;99107.56;5032139;28;20678;-72
2021/04/23 08:21:19;;;;;;;7.90;2.90;;;;;;;14.14;38.04;99106.00;5030247;28;20260;-72
2021/04/23 08:23:47;;;;;;;9.30;3.10;;;;;;;13.17;38.60;99109.50;5030325;28;20214;-72
2021/04/23 08:26:14;;;;;;;9.57;3.40;;;;;;;13.55;38.93;99105.53;5026318;28;20808;-73
2021/04/23 08:28:41;;;;;;;18.53;3.63;;;;;;;13.60;38.62;99113.00;5034246;28;20208;-72
2021/04/23 08:31:09;;;;;;;12.10;3.10;;;;;;;14.27;36.37;99117.69;5038460;28;20255;-73
2021/04/23 08:33:37;;;;;;;12.23;3.27;;;;;;;14.54;36.74;99105.22;5039448;28;20252;-72
2021/04/23 08:36:05;;;;;;;11.23;3.63;;;;;;;13.88;36.56;99116.56;5034923;28;20202;-73
2021/04/23 08:38:32;;;;;;;7.17;4.03;;;;;;;14.08;36.14;99109.47;5033724;28;20215;-80
2021/04/23 08:40:59;;;;;;;7.90;3.87;;;;;;;14.72;36.32;99110.88;5031243;28;20713;-76
2021/04/23 08:43:26;;;;;;;12.17;4.23;;;;;;;13.34;39.10;99102.88;5027744;28;20214;-73
2021/04/23 08:45:53;;;;;;;20.00;4.20;;;;;;;13.49;38.91;99103.63;5029073;28;20743;-74
2021/04/23 08:48:21;;;;;;;10.07;3.90;;;;;;;14.54;36.84;99106.03;5026800;28;20364;-76
2021/04/23 08:50:49;;;;;;;8.70;4.00;;;;;;;14.45;37.33;99101.88;5030492;28;20225;-81
2021/04/23 08:53:17;;;;;;;9.00;3.73;;;;;;;14.96;35.87;99113.91;5032050;28;20267;-73
2021/04/23 08:55:45;;;;;;;15.87;4.43;;;;;;;13.29;38.06;99104.47;5029968;28;20263;-73
2021/04/23 08:58:12;;;;;;;14.87;4.03;;;;;;;14.49;37.41;99103.13;5032038;28;20232;-76
2021/04/23 09:00:39;;;;;;;13.50;4.23;;;;;;;14.26;36.66;99107.97;5027987;28;20711;-75
2021/04/23 09:03:09;;;;;;;11.10;4.10;;;;;;;14.39;36.22;99109.91;5029928;28;20207;-75
2021/04/23 09:05:36;;;;;;;8.10;3.47;;;;;;;13.71;36.87;99112.47;5028200;28;20208;-75
2021/04/23 09:08:05;;;;;;;7.80;2.90;;;;;;;14.53;35.98;99114.31;5029601;28;20217;-75
2021/04/23 09:10:34;;;;;;;7.47;3.37;;;;;;;15.52;34.41;99115.28;5030444;28;20234;-72
2021/04/23 09:13:05;;;;;;;8.30;3.40;;;;;;;15.29;34.89;99113.97;5025041;28;20210;-72
2021/04/23 09:15:32;;;;;;;12.03;3.60;;;;;;;14.17;35.43;99111.78;5027851;28;20231;-74
2021/04/23 09:18:10;;;;;;;14.77;4.10;;;;;;;14.36;37.06;99107.59;5028208;28;20211;-75
2021/04/23 09:20:38;;;;;;;8.77;3.57;;;;;;;14.96;35.58;99111.19;5030159;28;20232;-75
2021/04/23 09:23:12;;;;;;;10.17;3.57;;;;;;;14.16;36.58;99109.31;5028176;28;20278;-74
2021/04/23 09:25:43;;;;;;;11.20;3.67;;;;;;;14.50;36.49;99098.59;5030261;28;20298;-74
2021/04/23 09:28:11;;;;;;;13.50;4.07;;;;;;;15.21;35.55;99106.09;5031563;28;20214;-74
2021/04/23 09:30:38;;;;;;;10.50;3.83;;;;;;;15.54;34.53;99112.38;5030737;28;20237;-72
2021/04/23 09:33:20;;;;;;;8.67;3.60;;;;;;;15.69;35.14;99105.78;5028865;28;20211;-73
2021/04/23 09:35:47;;;;;;;11.37;3.70;;;;;;;15.78;34.26;99114.47;5026716;28;20264;-72
2021/04/23 09:38:16;;;;;;;12.60;4.10;;;;;;;15.79;34.53;99108.03;5027375;28;20206;-72
2021/04/23 09:40:43;;;;;;;10.77;4.20;;;;;;;15.31;34.80;99101.16;5031423;28;20249;-74
2021/04/23 09:43:10;;;;;;;7.30;3.97;;;;;;;14.91;35.45;99116.34;5029626;28;20229;-74
2021/04/23 09:45:49;;;;;;;10.03;4.00;;;;;;;15.14;35.30;99110.63;5029062;28;20611;-75
2021/04/23 09:48:23;;;;;;;9.10;3.83;;;;;;;14.68;37.78;99091.66;5029275;28;20580;-73
2021/04/23 09:50:51;;;;;;;9.37;4.03;;;;;;;15.03;36.32;99103.97;5029226;28;20228;-72
2021/04/23 09:53:19;;;;;;;9.43;3.40;;;;;;;15.05;35.40;99106.47;5023988;28;20203;-71
2021/04/23 09:55:46;;;;;;;11.17;4.20;;;;;;;15.16;35.89;99103.19;5027495;28;20205;-74
2021/04/23 09:58:17;;;;;;;10.90;4.17;;;;;;;15.02;36.00;99101.47;5028242;28;20665;-69
2021/04/23 10:00:46;;;;;;;8.10;3.77;;;;;;;15.24;35.32;99109.19;5029932;28;20252;-70
2021/04/23 10:03:12;;;;;;;8.20;3.40;;;;;;;15.91;35.23;99109.91;5028108;28;20210;-76
2021/04/23 10:05:41;;;;;;;16.17;4.20;;;;;;;15.13;35.29;99103.56;5029639;28;20212;-70
2021/04/23 10:08:10;;;;;;;9.40;3.77;;;;;;;15.67;34.70;99098.94;5019316;28;20639;-72
2021/04/23 10:10:39;;;;;;;9.20;3.37;;;;;;;15.69;34.53;99104.94;5029874;28;20219;-74
2021/04/23 10:13:08;;;;;;;11.70;3.53;;;;;;;15.86;33.80;99101.63;5023036;28;20210;-73
2021/04/23 10:15:36;;;;;;;8.23;3.40;;;;;;;15.81;33.02;99108.69;5023422;28;20723;-74
2021/04/23 10:18:06;;;;;;;11.13;3.83;;;;;;;16.13;32.84;99118.59;5029966;28;20208;-73
2021/04/23 10:20:35;;;;;;;7.57;3.27;;;;;;;16.70;31.06;99126.78;5049177;22;20238;-68
2021/04/23 10:23:07;;;;;;;9.03;3.47;;;;;;;16.67;31.51;99117.25;5034135;28;20675;-68
2021/04/23 10:25:35;;;;;;;12.13;3.57;;;;;;;15.97;31.96;99121.72;5032850;28;20209;-70
2021/04/23 10:28:04;;;;;;;7.10;3.50;;;;;;;16.33;31.84;99109.47;5030225;28;20200;-70
2021/04/23 10:30:33;;;;;;;10.07;3.70;;;;;;;16.09;31.24;99111.97;5026394;28;20453;-68
2021/04/23 10:33:01;;;;;;;9.00;3.80;;;;;;;15.48;31.64;99130.19;5030365;28;20459;-68
2021/04/23 10:35:28;;;;;;;7.27;3.40;;;;;;;16.01;30.26;99136.44;5033221;28;20229;-71
2021/04/23 10:38:00;;;;;;;10.07;3.80;;;;;;;15.53;29.86;99132.25;5030063;28;20226;-70
2021/04/23 10:40:27;;;;;;;6.00;3.30;;;;;;;15.76;29.38;99130.81;5029613;28;20228;-77
2021/04/23 10:42:55;;;;;;;9.67;3.40;;;;;;;15.74;30.49;99123.97;5031570;28;20600;-74
2021/04/23 10:45:43;;;;;;;9.07;2.97;;;;;;;16.07;30.63;99114.06;5027196;28;20205;-72
2021/04/23 10:48:28;;;;;;;8.80;3.93;;;;;;;15.75;30.67;99109.50;5031070;28;20288;-76
2021/04/23 10:50:56;;;;;;;8.23;3.37;;;;;;;17.04;28.43;99112.97;5031724;28;20222;-71
2021/04/23 10:53:35;;;;;;;9.57;3.87;;;;;;;16.50;31.76;99102.59;5030149;28;20298;-75
2021/04/23 10:56:06;;;;;;;12.03;3.63;;;;;;;16.22;31.29;99110.06;5025385;28;20303;-69
2021/04/23 10:58:39;;;;;;;8.00;3.13;;;;;;;16.57;30.87;99105.28;5024733;28;20241;-69
2021/04/23 11:01:26;;;;;;;7.83;3.53;;;;;;;17.19;30.39;99094.63;5028553;28;20238;-76
2021/04/23 11:04:11;;;;;;;7.83;3.23;;;;;;;16.95;29.79;99095.34;5027893;28;20218;-70
2021/04/23 11:06:39;;;;;;;9.27;3.73;;;;;;;17.14;30.29;99089.88;5028708;28;20561;-69
2021/04/23 11:09:18;;;;;;;8.33;3.30;;;;;;;16.85;29.46;99098.53;5031691;28;20289;-70
2021/04/23 11:12:13;;;;;;;10.90;3.67;;;;;;;17.62;28.76;99101.00;5028673;28;20213;-66
2021/04/23 11:14:42;;;;;;;9.57;3.70;;;;;;;16.37;29.81;99101.78;5028832;28;20228;-71
2021/04/23 11:17:31;;;;;;;8.90;3.17;;;;;;;17.69;29.13;99096.38;5032976;28;20206;-80
2021/04/23 11:19:58;;;;;;;9.97;3.63;;;;;;;18.23;27.24;99102.75;5033056;28;20720;-79
2021/04/23 11:22:26;;;;;;;5.53;3.00;;;;;;;18.35;27.02;99100.19;5037632;28;20241;-79
2021/04/23 11:25:06;;;;;;;6.93;3.17;;;;;;;17.48;29.20;99092.16;5029721;28;20671;-74
2021/04/23 11:27:34;;;;;;;8.43;3.77;;;;;;;17.43;28.34;99099.28;5028189;28;20673;-71
2021/04/23 11:30:10;;;;;;;9.73;3.93;;;;;;;16.82;28.93;99104.34;5028508;28;20361;-75
2021/04/23 11:32:38;;;;;;;11.80;3.60;;;;;;;17.18;28.65;99093.78;5031230;28;20674;-76
2021/04/23 11:35:18;;;;;;;8.13;3.90;;;;;;;17.41;28.01;99099.50;5028495;28;20222;-76
2021/04/23 11:37:53;;;;;;;12.30;3.77;;;;;;;17.35;27.08;99100.34;5033303;28;20253;-76
2021/04/23 11:40:23;;;;;;;8.30;3.83;;;;;;;17.41;27.75;99087.84;5033015;28;20229;-75
2021/04/23 11:42:53;;;;;;;12.27;3.80;;;;;;;17.70;28.65;99087.22;5035794;28;20221;-79